createdAt,value
2023-01-27T00:01:33.217Z,101035.03
2023-01-27T00:03:34.818Z,101029.22
2023-01-27T00:05:36.535Z,101030.13
2023-01-27T00:07:38.704Z,101038.06
2023-01-27T00:09:40.509Z,101034.06
2023-01-27T00:11:42.035Z,101033.88
2023-01-27T00:13:45.067Z,101025.69
2023-01-27T00:15:46.883Z,101029.09
2023-01-27T00:17:48.661Z,101021.59
2023-01-27T00:19:50.174Z,101019.31
2023-01-27T00:21:51.700Z,101017.44
2023-01-27T00:23:53.445Z,101009.81
2023-01-27T00:25:55.467Z,101008.34
2023-01-27T00:27:56.986Z,101014.66
2023-01-27T00:30:00.071Z,101005.56
2023-01-27T00:32:02.000Z,101013.50
2023-01-27T00:34:05.057Z,101015.88
2023-01-27T00:36:07.707Z,101014.19
2023-01-27T00:38:09.433Z,101006.09
2023-01-27T00:40:12.679Z,101009.22
2023-01-27T00:42:14.487Z,101010.00
2023-01-27T00:44:16.087Z,101008.97
2023-01-27T00:46:20.422Z,101008.25
2023-01-27T00:48:22.020Z,101009.41
2023-01-27T00:50:23.619Z,101010.97
2023-01-27T00:52:25.409Z,101015.66
2023-01-27T00:54:26.959Z,101006.53
2023-01-27T00:56:28.908Z,100999.28
2023-01-27T00:58:30.713Z,101004.53
2023-01-27T01:00:32.201Z,100999.13
2023-01-27T01:02:35.580Z,100999.97
2023-01-27T01:04:37.231Z,101002.16
2023-01-27T01:06:38.787Z,100995.22
2023-01-27T01:08:40.978Z,100988.81
2023-01-27T01:10:44.454Z,100995.34
2023-01-27T01:12:46.025Z,100997.34
2023-01-27T01:14:47.594Z,100998.91
2023-01-27T01:16:49.125Z,100998.66
2023-01-27T01:18:52.386Z,101005.72
2023-01-27T01:20:54.035Z,100998.47
2023-01-27T01:22:55.566Z,101007.66
2023-01-27T01:24:57.124Z,101001.88
2023-01-27T01:26:58.627Z,101003.50
2023-01-27T01:29:00.307Z,101003.81
2023-01-27T01:31:06.968Z,101003.03
2023-01-27T01:33:08.558Z,101010.97
2023-01-27T01:35:11.483Z,101011.13
2023-01-27T01:37:12.997Z,101017.06
2023-01-27T01:39:14.556Z,101008.09
2023-01-27T01:41:19.602Z,101003.72
2023-01-27T01:43:21.163Z,101007.91
2023-01-27T01:45:44.989Z,101004.69
2023-01-27T01:47:46.641Z,101008.38
2023-01-27T01:49:48.243Z,101007.78
2023-01-27T01:51:54.945Z,101008.75
2023-01-27T01:54:01.797Z,101003.91
2023-01-27T01:56:09.215Z,101000.56
2023-01-27T01:58:12.700Z,101002.63
2023-01-27T02:00:15.477Z,100996.25
2023-01-27T02:02:22.237Z,100996.25
2023-01-27T02:04:27.754Z,100993.00
2023-01-27T02:06:29.528Z,100996.03
2023-01-27T02:08:37.865Z,100994.63
2023-01-27T02:10:39.460Z,100993.22
2023-01-27T02:12:41.101Z,100996.94
2023-01-27T02:14:42.802Z,100990.56
2023-01-27T02:16:44.935Z,100989.97
2023-01-27T02:18:47.089Z,100990.56
2023-01-27T02:20:58.184Z,100987.41
2023-01-27T02:23:11.485Z,100990.31
2023-01-27T02:25:20.437Z,100989.53
2023-01-27T02:27:23.267Z,100983.59
2023-01-27T02:29:24.915Z,100986.63
2023-01-27T02:31:26.952Z,100989.72
2023-01-27T02:33:28.546Z,100979.63
2023-01-27T02:35:35.675Z,100988.84
2023-01-27T02:37:38.271Z,100986.53
2023-01-27T02:39:43.222Z,100987.84
2023-01-27T02:41:48.779Z,100985.19
2023-01-27T02:43:52.262Z,100997.94
2023-01-27T02:45:53.783Z,100986.22
2023-01-27T02:47:55.315Z,100992.41
2023-01-27T02:49:56.838Z,100985.63
2023-01-27T02:51:58.333Z,100994.47
2023-01-27T02:53:59.922Z,100985.19
2023-01-27T02:56:01.469Z,100994.59
2023-01-27T02:58:02.994Z,100991.31
2023-01-27T03:00:07.079Z,100987.16
2023-01-27T03:02:08.706Z,100986.56
2023-01-27T03:04:10.341Z,100990.34
2023-01-27T03:06:11.900Z,100992.66
2023-01-27T03:08:13.467Z,100996.31
2023-01-27T03:10:15.065Z,101001.72
2023-01-27T03:12:16.593Z,100996.16
2023-01-27T03:14:18.097Z,100996.53
2023-01-27T03:16:20.993Z,100994.09
2023-01-27T03:18:22.577Z,100994.25
2023-01-27T03:20:24.828Z,100995.63
2023-01-27T03:22:26.334Z,100991.91
2023-01-27T03:24:28.029Z,101001.56
2023-01-27T03:26:29.862Z,100992.16
2023-01-27T03:28:31.468Z,101006.09
2023-01-27T03:30:33.041Z,101000.53
2023-01-27T03:32:36.438Z,100997.63
2023-01-27T03:34:38.344Z,100999.72
2023-01-27T03:36:39.903Z,100998.91
2023-01-27T03:38:41.445Z,100998.09
2023-01-27T03:40:42.914Z,100998.91
2023-01-27T03:42:44.428Z,101004.84
2023-01-27T03:44:45.932Z,101004.16
2023-01-27T03:46:47.438Z,101003.66
2023-01-27T03:48:52.377Z,101003.88
2023-01-27T03:50:57.328Z,101007.75
2023-01-27T03:52:58.846Z,101009.47
2023-01-27T03:55:00.341Z,101005.06
2023-01-27T03:57:01.833Z,101012.03
2023-01-27T03:59:03.314Z,101011.56
2023-01-27T04:01:07.392Z,101016.56
2023-01-27T04:03:08.970Z,101020.41
2023-01-27T04:05:12.241Z,101012.50
2023-01-27T04:07:13.938Z,101017.91
2023-01-27T04:09:20.131Z,101016.88
2023-01-27T04:11:21.812Z,101023.47
2023-01-27T04:13:23.438Z,101021.00
2023-01-27T04:15:25.110Z,101023.03
2023-01-27T04:17:26.672Z,101019.72
2023-01-27T04:19:28.750Z,101026.16
2023-01-27T04:21:32.271Z,101018.28
2023-01-27T04:23:33.853Z,101019.91
2023-01-27T04:25:35.515Z,101020.94
2023-01-27T04:27:36.983Z,101022.13
2023-01-27T04:29:41.155Z,101023.63
2023-01-27T04:31:43.392Z,101022.13
2023-01-27T04:33:45.493Z,101023.28
2023-01-27T04:35:46.992Z,101023.44
2023-01-27T04:37:49.877Z,101025.75
2023-01-27T04:39:51.535Z,101025.84
2023-01-27T04:41:53.083Z,101026.22
2023-01-27T04:43:54.742Z,101031.09
2023-01-27T04:45:56.361Z,101033.53
2023-01-27T04:47:57.959Z,101024.34
2023-01-27T04:49:59.536Z,101027.25
2023-01-27T04:52:01.113Z,101023.63
2023-01-27T04:54:04.616Z,101028.19
2023-01-27T04:56:17.890Z,101029.81
2023-01-27T04:58:19.354Z,101029.03
2023-01-27T05:00:21.011Z,101027.16
2023-01-27T05:02:22.651Z,101034.38
2023-01-27T05:04:24.509Z,101037.03
2023-01-27T05:06:27.064Z,101030.88
2023-01-27T05:08:28.676Z,101039.47
2023-01-27T05:10:32.837Z,101033.78
2023-01-27T05:12:34.724Z,101034.22
2023-01-27T05:14:36.287Z,101039.31
2023-01-27T05:16:38.793Z,101036.09
2023-01-27T05:18:41.884Z,101034.81
2023-01-27T05:20:43.775Z,101036.22
2023-01-27T05:22:45.345Z,101031.69
2023-01-27T05:24:47.031Z,101037.59
2023-01-27T05:26:50.036Z,101038.34
2023-01-27T05:28:52.749Z,101040.88
2023-01-27T05:31:01.331Z,101032.41
2023-01-27T05:33:03.231Z,101035.09
2023-01-27T05:35:05.712Z,101039.47
2023-01-27T05:37:07.248Z,101040.88
2023-01-27T05:39:10.581Z,101035.31
2023-01-27T05:41:16.576Z,101028.19
2023-01-27T05:43:19.461Z,101033.28
2023-01-27T05:45:20.971Z,101033.53
2023-01-27T05:47:22.527Z,101037.69
2023-01-27T05:49:24.091Z,101050.00
2023-01-27T05:51:29.392Z,101049.81
2023-01-27T05:53:31.454Z,101058.25
2023-01-27T05:55:32.948Z,101057.66
2023-01-27T05:57:34.471Z,101061.19
2023-01-27T05:59:37.414Z,101054.91
2023-01-27T06:01:39.398Z,101057.13
2023-01-27T06:03:42.112Z,101061.66
2023-01-27T06:05:51.505Z,101061.66
2023-01-27T06:07:53.032Z,101060.84
2023-01-27T06:09:54.588Z,101056.91
2023-01-27T06:11:56.105Z,101061.22
2023-01-27T06:13:57.878Z,101057.06
2023-01-27T06:16:02.129Z,101057.84
2023-01-27T06:18:03.995Z,101053.69
2023-01-27T06:20:06.278Z,101058.44
2023-01-27T06:22:07.813Z,101061.25
2023-01-27T06:24:11.306Z,101059.63
2023-01-27T06:26:18.400Z,101059.38
2023-01-27T06:28:28.742Z,101064.72
2023-01-27T06:30:31.791Z,101057.16
2023-01-27T06:32:37.121Z,101057.50
2023-01-27T06:34:38.736Z,101054.91
2023-01-27T06:36:43.784Z,101058.88
2023-01-27T06:38:46.023Z,101059.31
2023-01-27T06:40:47.561Z,101052.41
2023-01-27T06:42:49.087Z,101060.22
2023-01-27T06:44:50.521Z,101057.66
2023-01-27T06:46:52.154Z,101059.53
2023-01-27T06:48:55.142Z,101070.44
2023-01-27T06:50:57.079Z,101067.09
2023-01-27T06:53:00.518Z,101076.16
2023-01-27T06:55:02.045Z,101084.19
2023-01-27T06:57:03.765Z,101084.97
2023-01-27T06:59:05.534Z,101090.94
2023-01-27T07:01:07.185Z,101090.31
2023-01-27T07:03:10.593Z,101094.88
2023-01-27T07:05:13.758Z,101092.75
2023-01-27T07:07:15.328Z,101097.91
2023-01-27T07:09:16.939Z,101102.56
2023-01-27T07:11:18.484Z,101097.22
2023-01-27T07:13:20.035Z,101109.75
2023-01-27T07:15:21.552Z,101108.50
2023-01-27T07:17:23.123Z,101110.50
2023-01-27T07:19:24.690Z,101109.47
2023-01-27T07:21:27.574Z,101112.13
2023-01-27T07:23:29.129Z,101116.63
2023-01-27T07:25:32.621Z,101120.34
2023-01-27T07:27:34.220Z,101120.34
2023-01-27T07:29:35.732Z,101118.50
2023-01-27T07:31:37.211Z,101127.22
2023-01-27T07:33:38.717Z,101127.28
2023-01-27T07:35:40.230Z,101135.06
2023-01-27T07:37:43.248Z,101133.88
2023-01-27T07:39:44.787Z,101129.13
2023-01-27T07:41:48.333Z,101128.25
2023-01-27T07:43:51.512Z,101132.56
2023-01-27T07:45:54.288Z,101135.22
2023-01-27T07:48:00.243Z,101141.72
2023-01-27T07:50:01.725Z,101146.78
2023-01-27T07:52:03.355Z,101143.09
2023-01-27T07:54:06.512Z,101151.69
2023-01-27T07:56:08.549Z,101157.03
2023-01-27T07:58:10.143Z,101158.00
2023-01-27T08:00:13.303Z,101151.69
2023-01-27T08:02:14.953Z,101160.91
2023-01-27T08:04:16.494Z,101159.75
2023-01-27T08:06:18.008Z,101166.13
2023-01-27T08:08:19.521Z,101167.56
2023-01-27T08:10:22.709Z,101164.88
2023-01-27T08:12:24.400Z,101158.72
2023-01-27T08:14:26.078Z,101167.88
2023-01-27T08:16:27.892Z,101164.88
2023-01-27T08:18:29.510Z,101173.66
2023-01-27T08:20:31.054Z,101165.38
2023-01-27T08:22:32.675Z,101160.16
2023-01-27T08:24:34.891Z,101160.69
2023-01-27T08:26:37.693Z,101155.94
2023-01-27T08:28:40.061Z,101156.53
2023-01-27T08:30:41.682Z,101158.53
2023-01-27T08:32:43.256Z,101160.59
2023-01-27T08:34:44.813Z,101162.81
2023-01-27T08:36:46.370Z,101161.47
2023-01-27T08:38:48.459Z,101168.53
2023-01-27T08:40:49.992Z,101170.94
2023-01-27T08:42:52.948Z,101166.06
2023-01-27T08:45:00.639Z,101168.66
2023-01-27T08:47:02.280Z,101168.56
2023-01-27T08:49:03.812Z,101167.88
2023-01-27T08:51:06.500Z,101174.66
2023-01-27T08:53:08.018Z,101174.44
2023-01-27T08:55:09.600Z,101177.19
2023-01-27T08:57:11.099Z,101173.31
2023-01-27T08:59:14.000Z,101179.16
2023-01-27T09:01:16.331Z,101178.09
2023-01-27T09:03:17.968Z,101181.56
2023-01-27T09:05:20.282Z,101182.78
2023-01-27T09:07:21.951Z,101182.53
2023-01-27T09:09:23.494Z,101179.63
2023-01-27T09:11:24.991Z,101186.41
2023-01-27T09:13:26.793Z,101185.72
2023-01-27T09:15:29.685Z,101189.00
2023-01-27T09:17:31.334Z,101188.31
2023-01-27T09:19:32.994Z,101188.91
2023-01-27T09:21:34.542Z,101183.91
2023-01-27T09:23:36.083Z,101177.03
2023-01-27T09:25:37.706Z,101192.41
2023-01-27T09:27:40.244Z,101191.16
2023-01-27T09:29:42.013Z,101197.31
2023-01-27T09:31:45.264Z,101192.31
2023-01-27T09:33:46.876Z,101198.94
2023-01-27T09:35:53.905Z,101199.66
2023-01-27T09:37:57.916Z,101202.06
2023-01-27T09:40:09.491Z,101204.94
2023-01-27T09:42:41.762Z,101200.84
2023-01-27T09:45:07.536Z,101208.28
2023-01-27T09:47:27.597Z,101209.22
2023-01-27T09:49:45.428Z,101216.16
2023-01-27T09:51:58.587Z,101219.59
2023-01-27T09:54:27.292Z,101221.06
2023-01-27T09:56:40.304Z,101221.31
2023-01-27T09:59:01.802Z,101217.16
2023-01-27T10:01:13.831Z,101216.28
2023-01-27T10:03:27.358Z,101226.44
2023-01-27T10:05:47.342Z,101213.50
2023-01-27T10:08:22.843Z,101218.97
2023-01-27T10:10:39.579Z,101217.66
2023-01-27T10:12:54.857Z,101214.16
2023-01-27T10:15:11.762Z,101210.59
2023-01-27T10:17:25.883Z,101212.97
2023-01-27T10:19:47.850Z,101205.91
2023-01-27T10:21:59.964Z,101208.94
2023-01-27T10:24:13.861Z,101209.47
2023-01-27T10:26:23.396Z,101207.81
2023-01-27T10:28:29.476Z,101200.47
2023-01-27T10:30:35.138Z,101194.69
2023-01-27T10:32:44.227Z,101192.72
2023-01-27T10:34:55.222Z,101195.56
2023-01-27T10:37:20.158Z,101188.69
2023-01-27T10:39:32.333Z,101188.84
2023-01-27T10:41:43.850Z,101180.56
2023-01-27T10:43:56.826Z,101183.16
2023-01-27T10:46:07.274Z,101180.47
2023-01-27T10:48:29.895Z,101180.81
2023-01-27T10:50:41.642Z,101181.75
2023-01-27T10:52:48.343Z,101173.88
2023-01-27T10:54:55.519Z,101175.97
2023-01-27T10:57:01.162Z,101181.47
2023-01-27T10:59:10.909Z,101181.66
2023-01-27T11:01:21.268Z,101176.69
2023-01-27T11:03:28.631Z,101186.13
2023-01-27T11:05:35.904Z,101182.59
2023-01-27T11:07:46.475Z,101182.75
2023-01-27T11:09:56.641Z,101172.63
2023-01-27T11:12:03.256Z,101184.38
2023-01-27T11:14:21.468Z,101175.91
2023-01-27T11:16:25.160Z,101177.97
2023-01-27T11:18:29.655Z,101170.06
2023-01-27T11:20:38.134Z,101170.41
2023-01-27T11:22:53.490Z,101170.19
2023-01-27T11:25:02.317Z,101168.53
2023-01-27T11:27:12.235Z,101163.41
2023-01-27T11:29:22.424Z,101169.59
2023-01-27T11:31:35.736Z,101164.22
2023-01-27T11:33:52.557Z,101161.69
2023-01-27T11:35:55.897Z,101158.53
2023-01-27T11:38:09.922Z,101165.06
2023-01-27T11:40:21.546Z,101156.91
2023-01-27T11:42:26.184Z,101157.25
2023-01-27T11:44:31.975Z,101155.97
2023-01-27T11:46:34.409Z,101155.53
2023-01-27T11:48:39.813Z,101156.81
2023-01-27T11:50:42.936Z,101151.44
2023-01-27T11:52:49.491Z,101155.84
2023-01-27T11:54:56.039Z,101147.22
2023-01-27T11:56:57.646Z,101153.28
2023-01-27T11:59:04.580Z,101149.41
2023-01-27T12:01:11.481Z,101152.84
2023-01-27T12:03:19.804Z,101155.88
2023-01-27T12:05:27.593Z,101161.84
2023-01-27T12:07:39.502Z,101151.63
2023-01-27T12:09:42.736Z,101156.06
2023-01-27T12:11:44.319Z,101157.63
2023-01-27T12:13:53.463Z,101160.00
2023-01-27T12:15:59.061Z,101168.25
2023-01-27T12:18:03.888Z,101162.91
2023-01-27T12:20:07.924Z,101154.28
2023-01-27T12:22:17.027Z,101156.81
2023-01-27T12:24:28.028Z,101158.34
2023-01-27T12:26:36.260Z,101158.16
2023-01-27T12:28:42.011Z,101155.25
2023-01-27T12:30:47.524Z,101159.00
2023-01-27T12:32:49.514Z,101153.84
2023-01-27T12:34:54.275Z,101163.47
2023-01-27T12:36:56.726Z,101162.91
2023-01-27T12:39:01.320Z,101150.81
2023-01-27T12:41:05.691Z,101158.88
2023-01-27T12:43:13.973Z,101157.41
2023-01-27T12:45:22.032Z,101150.75
2023-01-27T12:47:26.465Z,101153.28
2023-01-27T12:49:33.263Z,101147.34
2023-01-27T12:51:39.201Z,101144.13
2023-01-27T12:53:40.767Z,101142.50
2023-01-27T12:55:46.927Z,101140.72
2023-01-27T12:57:48.463Z,101140.94
2023-01-27T12:59:55.040Z,101147.53
2023-01-27T13:02:02.715Z,101146.34
2023-01-27T13:04:10.235Z,101145.38
2023-01-27T13:06:15.748Z,101146.69
2023-01-27T13:08:19.474Z,101138.47
2023-01-27T13:10:23.167Z,101137.34
2023-01-27T13:12:27.392Z,101144.38
2023-01-27T13:14:30.615Z,101144.38
2023-01-27T13:16:33.752Z,101139.31
2023-01-27T13:18:37.099Z,101133.53
2023-01-27T13:20:44.732Z,101135.56
2023-01-27T13:22:48.937Z,101136.38
2023-01-27T13:24:57.064Z,101137.06
2023-01-27T13:27:02.231Z,101138.13
2023-01-27T13:29:10.539Z,101137.41
2023-01-27T13:31:22.108Z,101140.06
2023-01-27T13:33:34.259Z,101138.28
2023-01-27T13:35:43.504Z,101141.53
2023-01-27T13:37:54.232Z,101135.50
2023-01-27T13:40:02.333Z,101145.09
2023-01-27T13:42:13.487Z,101153.81
2023-01-27T13:44:24.490Z,101147.09
2023-01-27T13:46:30.461Z,101157.75
2023-01-27T13:48:40.579Z,101158.34
2023-01-27T13:50:45.669Z,101163.59
2023-01-27T13:52:51.582Z,101157.06
2023-01-27T13:54:53.396Z,101154.41
2023-01-27T13:57:09.801Z,101149.91
2023-01-27T13:59:32.547Z,101134.59
2023-01-27T14:01:47.744Z,101138.44
2023-01-27T14:04:09.044Z,101144.16
2023-01-27T14:06:23.249Z,101144.78
2023-01-27T14:08:49.657Z,101145.19
2023-01-27T14:11:07.223Z,101140.69
2023-01-27T14:13:25.192Z,101148.38
2023-01-27T14:15:35.149Z,101149.09
2023-01-27T14:17:42.861Z,101141.16
2023-01-27T14:19:53.826Z,101141.81
2023-01-27T14:22:01.998Z,101142.41
2023-01-27T14:24:16.729Z,101150.09
2023-01-27T14:26:43.376Z,101141.97
2023-01-27T14:29:00.241Z,101143.16
2023-01-27T14:31:10.797Z,101145.09
2023-01-27T14:33:20.987Z,101149.91
2023-01-27T14:35:45.631Z,101151.09
2023-01-27T14:37:55.688Z,101153.97
2023-01-27T14:40:13.335Z,101158.03
2023-01-27T14:42:24.442Z,101155.91
2023-01-27T14:44:43.470Z,101160.91
2023-01-27T14:46:58.017Z,101168.28
2023-01-27T14:49:10.706Z,101165.00
2023-01-27T14:51:27.620Z,101171.44
2023-01-27T14:53:43.669Z,101175.41
2023-01-27T14:55:51.655Z,101175.06
2023-01-27T14:58:03.128Z,101172.50
2023-01-27T15:00:25.834Z,101168.22
2023-01-27T15:03:03.660Z,101168.22
2023-01-27T15:05:16.098Z,101168.69
2023-01-27T15:07:24.763Z,101178.22
2023-01-27T15:09:58.991Z,101174.59
2023-01-27T15:12:20.611Z,101174.94
2023-01-27T15:14:45.709Z,101176.47
2023-01-27T15:17:05.224Z,101181.94
2023-01-27T15:19:24.435Z,101187.91
2023-01-27T15:21:51.320Z,101192.66
2023-01-27T15:24:30.122Z,101197.91
2023-01-27T15:26:34.610Z,101200.59
2023-01-27T15:28:39.937Z,101197.91
2023-01-27T15:31:10.090Z,101203.47
2023-01-27T15:33:48.561Z,101203.34
2023-01-27T15:36:16.785Z,101198.34
2023-01-27T15:38:21.490Z,101197.78
2023-01-27T15:40:24.899Z,101198.59
2023-01-27T15:42:49.271Z,101199.16
2023-01-27T15:45:02.249Z,101200.56
2023-01-27T15:47:10.099Z,101204.53
2023-01-27T15:49:19.488Z,101199.41
2023-01-27T15:51:21.422Z,101203.00
2023-01-27T15:53:29.731Z,101197.78
2023-01-27T15:55:34.570Z,101201.25
2023-01-27T15:57:38.941Z,101200.47
2023-01-27T15:59:57.155Z,101197.78
2023-01-27T16:02:04.195Z,101198.84
2023-01-27T16:04:13.230Z,101199.63
2023-01-27T16:06:17.951Z,101201.59
2023-01-27T16:08:20.596Z,101211.28
2023-01-27T16:10:24.691Z,101207.78
2023-01-27T16:12:37.854Z,101208.97
2023-01-27T16:14:46.277Z,101208.13
2023-01-27T16:17:02.710Z,101210.34
2023-01-27T16:19:16.987Z,101213.16
2023-01-27T16:21:37.360Z,101215.38
2023-01-27T16:23:48.815Z,101225.25
2023-01-27T16:25:59.134Z,101228.63
2023-01-27T16:28:05.872Z,101227.72
2023-01-27T16:30:14.970Z,101228.19
2023-01-27T16:32:19.494Z,101230.50
2023-01-27T16:34:24.427Z,101234.59
2023-01-27T16:36:29.152Z,101229.13
2023-01-27T16:38:33.019Z,101228.41
2023-01-27T16:40:37.517Z,101236.09
2023-01-27T16:42:46.040Z,101237.50
2023-01-27T16:44:51.640Z,101238.78
2023-01-27T16:46:56.879Z,101243.34
2023-01-27T16:49:01.244Z,101240.53
2023-01-27T16:51:17.203Z,101242.16
2023-01-27T16:53:20.550Z,101247.88
2023-01-27T16:55:22.326Z,101245.75
2023-01-27T16:57:31.310Z,101251.25
2023-01-27T16:59:36.131Z,101245.19
2023-01-27T17:01:42.921Z,101246.34
2023-01-27T17:03:46.655Z,101251.00
2023-01-27T17:05:51.869Z,101251.81
2023-01-27T17:08:14.162Z,101244.28
2023-01-27T17:10:29.134Z,101251.00
2023-01-27T17:12:39.678Z,101249.38
2023-01-27T17:14:46.298Z,101248.69
2023-01-27T17:16:49.925Z,101253.22
2023-01-27T17:18:53.736Z,101260.22
2023-01-27T17:20:56.584Z,101259.16
2023-01-27T17:22:59.540Z,101256.25
2023-01-27T17:25:03.768Z,101257.88
2023-01-27T17:27:09.067Z,101256.47
2023-01-27T17:29:17.113Z,101263.72
2023-01-27T17:31:22.826Z,101258.59
2023-01-27T17:33:25.770Z,101266.28
2023-01-27T17:35:29.467Z,101263.13
2023-01-27T17:37:33.389Z,101261.59
2023-01-27T17:39:37.663Z,101264.28
2023-01-27T17:41:39.180Z,101263.25
2023-01-27T17:43:40.984Z,101261.41
2023-01-27T17:45:42.592Z,101266.97
2023-01-27T17:47:46.346Z,101267.09
2023-01-27T17:49:51.104Z,101261.97
2023-01-27T17:51:54.406Z,101269.53
2023-01-27T17:53:56.563Z,101263.13
2023-01-27T17:55:58.263Z,101267.31
2023-01-27T17:58:04.407Z,101271.63
2023-01-27T18:00:09.346Z,101264.78
2023-01-27T18:02:19.473Z,101264.28
2023-01-27T18:04:22.728Z,101272.09
2023-01-27T18:06:28.843Z,101268.00
2023-01-27T18:08:33.097Z,101272.09
2023-01-27T18:10:39.512Z,101268.94
2023-01-27T18:12:41.060Z,101269.78
2023-01-27T18:14:42.648Z,101276.53
2023-01-27T18:16:44.377Z,101276.06
2023-01-27T18:18:47.034Z,101276.31
2023-01-27T18:20:50.507Z,101277.34
2023-01-27T18:22:53.460Z,101277.34
2023-01-27T18:24:58.642Z,101274.66
2023-01-27T18:27:00.239Z,101276.06
2023-01-27T18:29:04.897Z,101276.53
2023-01-27T18:31:14.570Z,101276.31
2023-01-27T18:33:17.697Z,101279.00
2023-01-27T18:35:25.142Z,101274.31
2023-01-27T18:37:29.974Z,101275.84
2023-01-27T18:39:37.960Z,101273.97
2023-01-27T18:41:46.817Z,101277.13
2023-01-27T18:43:51.322Z,101275.00
2023-01-27T18:45:52.874Z,101284.22
2023-01-27T18:47:55.049Z,101287.84
2023-01-27T18:50:06.498Z,101299.72
2023-01-27T18:52:11.126Z,101300.53
2023-01-27T18:54:12.768Z,101300.41
2023-01-27T18:56:15.820Z,101305.28
2023-01-27T18:58:17.405Z,101301.22
2023-01-27T19:00:21.472Z,101293.88
2023-01-27T19:02:23.528Z,101306.81
2023-01-27T19:04:25.616Z,101303.31
2023-01-27T19:06:27.202Z,101301.69
2023-01-27T19:08:28.738Z,101308.53
2023-01-27T19:10:32.421Z,101307.03
2023-01-27T19:12:35.334Z,101298.53
2023-01-27T19:14:37.367Z,101303.06
2023-01-27T19:16:39.325Z,101305.06
2023-01-27T19:18:41.864Z,101311.44
2023-01-27T19:20:43.363Z,101310.53
2023-01-27T19:22:45.519Z,101312.63
2023-01-27T19:24:47.534Z,101310.06
2023-01-27T19:26:49.668Z,101302.97
2023-01-27T19:28:54.964Z,101309.50
2023-01-27T19:30:57.237Z,101317.88
2023-01-27T19:32:58.844Z,101318.47
2023-01-27T19:35:00.397Z,101321.72
2023-01-27T19:37:02.012Z,101323.72
2023-01-27T19:39:12.588Z,101319.41
2023-01-27T19:41:14.189Z,101319.75
2023-01-27T19:43:16.387Z,101323.38
2023-01-27T19:45:20.277Z,101323.38
2023-01-27T19:47:21.951Z,101317.78
2023-01-27T19:49:23.635Z,101324.56
2023-01-27T19:51:25.271Z,101312.19
2023-01-27T19:53:26.911Z,101329.06
2023-01-27T19:55:28.581Z,101329.91
2023-01-27T19:57:30.092Z,101330.47
2023-01-27T19:59:31.737Z,101333.41
2023-01-27T20:01:35.125Z,101331.75
2023-01-27T20:03:36.806Z,101334.09
2023-01-27T20:05:38.410Z,101336.19
2023-01-27T20:07:39.942Z,101331.88
2023-01-27T20:09:41.847Z,101341.19
2023-01-27T20:11:44.157Z,101350.19
2023-01-27T20:13:45.680Z,101341.19
2023-01-27T20:15:47.592Z,101343.19
2023-01-27T20:17:50.846Z,101344.34
2023-01-27T20:19:52.413Z,101341.69
2023-01-27T20:21:53.920Z,101338.16
2023-01-27T20:23:55.507Z,101346.44
2023-01-27T20:25:57.140Z,101345.16
2023-01-27T20:28:00.790Z,101349.94
2023-01-27T20:30:02.400Z,101348.88
2023-01-27T20:32:04.463Z,101346.81
2023-01-27T20:34:22.841Z,101340.75
2023-01-27T20:36:24.475Z,101345.06
2023-01-27T20:38:26.193Z,101339.47
2023-01-27T20:40:28.873Z,101349.13
2023-01-27T20:42:30.783Z,101342.47
2023-01-27T20:44:33.703Z,101347.84
2023-01-27T20:46:35.527Z,101352.97
2023-01-27T20:48:37.193Z,101344.69
2023-01-27T20:50:40.089Z,101343.19
2023-01-27T20:52:41.729Z,101346.00
2023-01-27T20:54:43.309Z,101341.09
2023-01-27T20:56:44.845Z,101337.13
2023-01-27T20:58:47.518Z,101337.69
2023-01-27T21:00:49.175Z,101343.63
2023-01-27T21:02:53.085Z,101345.84
2023-01-27T21:04:55.210Z,101347.50
2023-01-27T21:06:58.109Z,101347.50
2023-01-27T21:08:59.668Z,101346.66
2023-01-27T21:11:02.622Z,101353.09
2023-01-27T21:13:04.335Z,101358.66
2023-01-27T21:15:06.848Z,101361.34
2023-01-27T21:17:08.599Z,101363.22
2023-01-27T21:19:10.563Z,101362.19
2023-01-27T21:21:22.412Z,101363.91
2023-01-27T21:23:26.573Z,101359.50
2023-01-27T21:25:28.220Z,101363.81
2023-01-27T21:27:29.911Z,101365.66
2023-01-27T21:29:31.393Z,101371.03
2023-01-27T21:31:33.091Z,101365.66
2023-01-27T21:33:35.464Z,101365.31
2023-01-27T21:35:37.038Z,101366.13
2023-01-27T21:37:38.619Z,101369.84
2023-01-27T21:39:41.474Z,101368.00
2023-01-27T21:41:43.070Z,101371.84
2023-01-27T21:43:44.625Z,101365.66
2023-01-27T21:45:46.285Z,101375.59
2023-01-27T21:47:47.897Z,101369.97
2023-01-27T21:49:49.822Z,101377.78
2023-01-27T21:51:51.332Z,101375.09
2023-01-27T21:53:52.822Z,101377.56
2023-01-27T21:55:55.812Z,101376.97
2023-01-27T21:57:57.341Z,101385.38
2023-01-27T21:59:58.925Z,101381.25
2023-01-27T22:02:00.485Z,101386.03
2023-01-27T22:04:03.209Z,101384.63
2023-01-27T22:06:05.561Z,101389.91
2023-01-27T22:08:07.191Z,101382.84
2023-01-27T22:10:15.313Z,101385.41
2023-01-27T22:12:18.476Z,101387.25
2023-01-27T22:14:20.225Z,101383.84
2023-01-27T22:16:29.731Z,101386.66
2023-01-27T22:18:31.424Z,101382.84
2023-01-27T22:20:33.059Z,101378.63
2023-01-27T22:22:34.609Z,101379.22
2023-01-27T22:24:36.141Z,101379.00
2023-01-27T22:26:37.717Z,101380.63
2023-01-27T22:28:40.654Z,101374.63
2023-01-27T22:30:42.344Z,101371.84
2023-01-27T22:32:44.792Z,101383.59
2023-01-27T22:34:46.268Z,101386.72
2023-01-27T22:36:47.768Z,101369.16
2023-01-27T22:38:49.572Z,101380.91
2023-01-27T22:40:55.739Z,101381.97
2023-01-27T22:42:57.401Z,101384.81
2023-01-27T22:45:00.427Z,101377.81
2023-01-27T22:47:02.010Z,101377.09
2023-01-27T22:49:03.607Z,101377.31
2023-01-27T22:51:05.983Z,101386.63
2023-01-27T22:53:07.589Z,101383.59
2023-01-27T22:55:11.369Z,101386.28
2023-01-27T22:57:13.002Z,101376.28
2023-01-27T22:59:14.707Z,101385.03
2023-01-27T23:01:17.707Z,101376.09
2023-01-27T23:03:20.112Z,101374.69
2023-01-27T23:05:21.776Z,101371.53
2023-01-27T23:07:23.665Z,101368.53
2023-01-27T23:09:25.224Z,101367.03
2023-01-27T23:11:26.807Z,101371.13
2023-01-27T23:13:28.704Z,101371.94
2023-01-27T23:15:30.633Z,101371.34
2023-01-27T23:17:33.559Z,101368.44
2023-01-27T23:19:35.130Z,101371.13
2023-01-27T23:21:36.755Z,101372.97
2023-01-27T23:23:38.430Z,101371.69
2023-01-27T23:25:42.273Z,101374.16
2023-01-27T23:27:43.977Z,101374.06
2023-01-27T23:29:45.589Z,101374.06
2023-01-27T23:31:49.612Z,101363.91
2023-01-27T23:33:55.395Z,101358.91
2023-01-27T23:35:57.209Z,101369.28
2023-01-27T23:37:58.785Z,101369.38
2023-01-27T23:40:00.371Z,101373.69
2023-01-27T23:42:01.905Z,101376.28
2023-01-27T23:44:03.394Z,101378.56
2023-01-27T23:46:05.237Z,101379.16
2023-01-27T23:48:06.788Z,101382.19
2023-01-27T23:50:11.259Z,101378.03